sensor_id;sensor_type;location;lat;lon;timestamp;temperature;humidity
46440;DHT22;32138;50.966;6.968;2022-12-11T00:00:18;4.90;91.00
46440;DHT22;32138;50.966;6.968;2022-12-11T00:01:20;4.90;90.80
46440;DHT22;32138;50.966;6.968;2022-12-11T00:02:21;4.80;91.00
46440;DHT22;32138;50.966;6.968;2022-12-11T00:03:22;4.80;91.00
46440;DHT22;32138;50.966;6.968;2022-12-11T00:04:23;4.90;90.90
46440;DHT22;32138;50.966;6.968;2022-12-11T00:05:24;4.90;90.90
46440;DHT22;32138;50.966;6.968;2022-12-11T00:06:24;4.90;91.00
46440;DHT22;32138;50.966;6.968;2022-12-11T00:07:25;5.00;91.00
46440;DHT22;32138;50.966;6.968;2022-12-11T00:08:26;5.00;90.80
46440;DHT22;32138;50.966;6.968;2022-12-11T00:09:27;5.00;90.90
46440;DHT22;32138;50.966;6.968;2022-12-11T00:10:27;5.00;90.80
46440;DHT22;32138;50.966;6.968;2022-12-11T00:11:28;5.00;90.80
46440;DHT22;32138;50.966;6.968;2022-12-11T00:12:30;5.00;90.70
46440;DHT22;32138;50.966;6.968;2022-12-11T00:13:31;5.00;90.70
46440;DHT22;32138;50.966;6.968;2022-12-11T00:14:32;4.90;90.80
46440;DHT22;32138;50.966;6.968;2022-12-11T00:15:32;5.10;90.90
46440;DHT22;32138;50.966;6.968;2022-12-11T00:16:33;5.10;90.70
46440;DHT22;32138;50.966;6.968;2022-12-11T00:17:34;5.00;90.70
46440;DHT22;32138;50.966;6.968;2022-12-11T00:18:35;5.00;90.70
46440;DHT22;32138;50.966;6.968;2022-12-11T00:19:36;5.00;90.70
46440;DHT22;32138;50.966;6.968;2022-12-11T00:20:37;5.10;90.80
46440;DHT22;32138;50.966;6.968;2022-12-11T00:21:38;5.10;90.70
46440;DHT22;32138;50.966;6.968;2022-12-11T00:22:38;5.10;90.70
46440;DHT22;32138;50.966;6.968;2022-12-11T00:23:39;5.00;90.60
46440;DHT22;32138;50.966;6.968;2022-12-11T00:24:40;4.80;90.80
46440;DHT22;32138;50.966;6.968;2022-12-11T00:25:45;4.80;91.00
46440;DHT22;32138;50.966;6.968;2022-12-11T00:26:46;4.60;91.10
46440;DHT22;32138;50.966;6.968;2022-12-11T00:27:47;4.70;91.30
46440;DHT22;32138;50.966;6.968;2022-12-11T00:28:52;4.80;91.30
46440;DHT22;32138;50.966;6.968;2022-12-11T00:29:53;4.90;91.00
46440;DHT22;32138;50.966;6.968;2022-12-11T00:30:54;5.00;91.00
46440;DHT22;32138;50.966;6.968;2022-12-11T00:31:55;5.10;91.10
46440;DHT22;32138;50.966;6.968;2022-12-11T00:32:56;5.10;91.30
46440;DHT22;32138;50.966;6.968;2022-12-11T00:33:56;5.10;90.90
46440;DHT22;32138;50.966;6.968;2022-12-11T00:34:57;5.10;90.90
46440;DHT22;32138;50.966;6.968;2022-12-11T00:35:58;5.10;90.90
46440;DHT22;32138;50.966;6.968;2022-12-11T00:36:59;5.20;90.80
46440;DHT22;32138;50.966;6.968;2022-12-11T00:37:59;5.10;91.30
46440;DHT22;32138;50.966;6.968;2022-12-11T00:39:01;5.20;91.00
46440;DHT22;32138;50.966;6.968;2022-12-11T00:40:03;5.10;91.30
46440;DHT22;32138;50.966;6.968;2022-12-11T00:41:04;5.10;91.00
46440;DHT22;32138;50.966;6.968;2022-12-11T00:42:06;5.10;91.00
46440;DHT22;32138;50.966;6.968;2022-12-11T00:43:07;5.10;91.10
46440;DHT22;32138;50.966;6.968;2022-12-11T00:44:08;5.00;91.10
46440;DHT22;32138;50.966;6.968;2022-12-11T00:45:09;5.00;91.20
46440;DHT22;32138;50.966;6.968;2022-12-11T00:46:10;5.00;91.10
46440;DHT22;32138;50.966;6.968;2022-12-11T00:47:11;5.00;91.20
46440;DHT22;32138;50.966;6.968;2022-12-11T00:48:12;5.10;91.20
46440;DHT22;32138;50.966;6.968;2022-12-11T00:49:13;5.10;91.10
46440;DHT22;32138;50.966;6.968;2022-12-11T00:50:14;5.10;91.00
46440;DHT22;32138;50.966;6.968;2022-12-11T00:51:15;5.10;91.00
46440;DHT22;32138;50.966;6.968;2022-12-11T00:52:17;5.00;91.10
46440;DHT22;32138;50.966;6.968;2022-12-11T00:53:17;5.00;91.20
46440;DHT22;32138;50.966;6.968;2022-12-11T00:54:18;5.00;91.30
46440;DHT22;32138;50.966;6.968;2022-12-11T00:55:19;4.90;91.40
46440;DHT22;32138;50.966;6.968;2022-12-11T00:56:21;5.00;91.40
46440;DHT22;32138;50.966;6.968;2022-12-11T00:57:22;5.10;91.30
46440;DHT22;32138;50.966;6.968;2022-12-11T00:58:23;5.00;91.20
46440;DHT22;32138;50.966;6.968;2022-12-11T00:59:24;4.90;91.50
46440;DHT22;32138;50.966;6.968;2022-12-11T01:00:24;4.90;91.40
46440;DHT22;32138;50.966;6.968;2022-12-11T01:01:25;4.50;91.70
46440;DHT22;32138;50.966;6.968;2022-12-11T01:02:26;4.40;92.20
46440;DHT22;32138;50.966;6.968;2022-12-11T01:03:27;4.40;92.00
46440;DHT22;32138;50.966;6.968;2022-12-11T01:04:27;4.50;92.00
46440;DHT22;32138;50.966;6.968;2022-12-11T01:05:28;4.50;91.90
46440;DHT22;32138;50.966;6.968;2022-12-11T01:06:29;4.50;91.80
46440;DHT22;32138;50.966;6.968;2022-12-11T01:07:30;4.50;91.90
46440;DHT22;32138;50.966;6.968;2022-12-11T01:08:31;4.40;92.10
46440;DHT22;32138;50.966;6.968;2022-12-11T01:09:31;4.50;92.20
46440;DHT22;32138;50.966;6.968;2022-12-11T01:10:50;4.60;92.20
46440;DHT22;32138;50.966;6.968;2022-12-11T01:11:51;4.70;92.10
46440;DHT22;32138;50.966;6.968;2022-12-11T01:12:57;4.80;91.90
46440;DHT22;32138;50.966;6.968;2022-12-11T01:14:02;4.80;91.80
46440;DHT22;32138;50.966;6.968;2022-12-11T01:15:03;4.90;91.80
46440;DHT22;32138;50.966;6.968;2022-12-11T01:16:10;4.90;91.80
46440;DHT22;32138;50.966;6.968;2022-12-11T01:17:13;4.90;91.60
46440;DHT22;32138;50.966;6.968;2022-12-11T01:18:14;4.90;91.70
46440;DHT22;32138;50.966;6.968;2022-12-11T01:19:15;4.80;91.70
46440;DHT22;32138;50.966;6.968;2022-12-11T01:20:16;5.00;91.90
46440;DHT22;32138;50.966;6.968;2022-12-11T01:21:18;5.00;91.60
46440;DHT22;32138;50.966;6.968;2022-12-11T01:22:19;5.00;91.60
46440;DHT22;32138;50.966;6.968;2022-12-11T01:23:19;5.10;91.50
46440;DHT22;32138;50.966;6.968;2022-12-11T01:24:20;5.10;91.40
46440;DHT22;32138;50.966;6.968;2022-12-11T01:25:21;5.10;91.40
46440;DHT22;32138;50.966;6.968;2022-12-11T01:26:22;5.10;91.40
46440;DHT22;32138;50.966;6.968;2022-12-11T01:27:23;5.20;91.40
46440;DHT22;32138;50.966;6.968;2022-12-11T01:28:25;5.20;91.30
46440;DHT22;32138;50.966;6.968;2022-12-11T01:29:25;5.20;91.30
46440;DHT22;32138;50.966;6.968;2022-12-11T01:30:26;5.10;91.30
46440;DHT22;32138;50.966;6.968;2022-12-11T01:31:27;5.10;91.40
46440;DHT22;32138;50.966;6.968;2022-12-11T01:32:27;5.10;91.30
46440;DHT22;32138;50.966;6.968;2022-12-11T01:33:28;5.10;91.40
46440;DHT22;32138;50.966;6.968;2022-12-11T01:34:30;5.10;91.30
46440;DHT22;32138;50.966;6.968;2022-12-11T01:35:32;5.10;91.40
46440;DHT22;32138;50.966;6.968;2022-12-11T01:36:33;5.10;91.30
46440;DHT22;32138;50.966;6.968;2022-12-11T01:37:34;5.10;91.20
46440;DHT22;32138;50.966;6.968;2022-12-11T01:38:35;5.20;91.20
46440;DHT22;32138;50.966;6.968;2022-12-11T01:39:36;5.10;91.10
46440;DHT22;32138;50.966;6.968;2022-12-11T01:40:38;5.10;91.30
46440;DHT22;32138;50.966;6.968;2022-12-11T01:41:45;5.10;91.20
46440;DHT22;32138;50.966;6.968;2022-12-11T01:42:46;5.20;91.10
46440;DHT22;32138;50.966;6.968;2022-12-11T01:45:33;5.20;90.80
46440;DHT22;32138;50.966;6.968;2022-12-11T01:46:39;5.20;90.90
46440;DHT22;32138;50.966;6.968;2022-12-11T01:47:41;5.10;91.10
46440;DHT22;32138;50.966;6.968;2022-12-11T01:48:43;5.10;91.00
46440;DHT22;32138;50.966;6.968;2022-12-11T01:49:43;5.10;91.00
46440;DHT22;32138;50.966;6.968;2022-12-11T01:50:48;5.20;90.80
46440;DHT22;32138;50.966;6.968;2022-12-11T01:51:57;5.10;90.80
46440;DHT22;32138;50.966;6.968;2022-12-11T01:53:02;5.10;90.80
46440;DHT22;32138;50.966;6.968;2022-12-11T01:54:08;5.10;90.80
46440;DHT22;32138;50.966;6.968;2022-12-11T01:55:11;5.20;90.70
46440;DHT22;32138;50.966;6.968;2022-12-11T01:56:12;5.10;90.60
46440;DHT22;32138;50.966;6.968;2022-12-11T01:57:14;5.20;90.60
46440;DHT22;32138;50.966;6.968;2022-12-11T01:58:17;5.10;90.50
46440;DHT22;32138;50.966;6.968;2022-12-11T01:59:22;5.10;90.80
46440;DHT22;32138;50.966;6.968;2022-12-11T02:00:24;5.10;90.60
46440;DHT22;32138;50.966;6.968;2022-12-11T02:01:38;5.10;90.50
46440;DHT22;32138;50.966;6.968;2022-12-11T02:02:44;4.90;90.90
46440;DHT22;32138;50.966;6.968;2022-12-11T02:03:45;4.90;90.80
46440;DHT22;32138;50.966;6.968;2022-12-11T02:04:46;5.00;90.80
46440;DHT22;32138;50.966;6.968;2022-12-11T02:05:48;5.00;90.70
46440;DHT22;32138;50.966;6.968;2022-12-11T02:06:54;5.00;90.60
46440;DHT22;32138;50.966;6.968;2022-12-11T02:07:57;5.00;90.80
46440;DHT22;32138;50.966;6.968;2022-12-11T02:08:59;5.10;90.60
46440;DHT22;32138;50.966;6.968;2022-12-11T02:10:01;5.10;90.70
46440;DHT22;32138;50.966;6.968;2022-12-11T02:11:20;5.10;90.60
46440;DHT22;32138;50.966;6.968;2022-12-11T02:12:38;5.20;90.40
46440;DHT22;32138;50.966;6.968;2022-12-11T02:13:43;5.10;90.50
46440;DHT22;32138;50.966;6.968;2022-12-11T02:16:27;4.90;90.70
46440;DHT22;32138;50.966;6.968;2022-12-11T02:17:34;4.80;90.80
46440;DHT22;32138;50.966;6.968;2022-12-11T02:18:50;4.60;90.90
46440;DHT22;32138;50.966;6.968;2022-12-11T02:20:36;4.50;90.90
46440;DHT22;32138;50.966;6.968;2022-12-11T02:21:42;4.60;91.10
46440;DHT22;32138;50.966;6.968;2022-12-11T02:24:51;4.80;91.10
46440;DHT22;32138;50.966;6.968;2022-12-11T02:26:11;4.80;91.00
46440;DHT22;32138;50.966;6.968;2022-12-11T02:28:54;4.70;91.00
46440;DHT22;32138;50.966;6.968;2022-12-11T02:30:03;4.70;91.00
46440;DHT22;32138;50.966;6.968;2022-12-11T02:31:43;4.60;91.10
46440;DHT22;32138;50.966;6.968;2022-12-11T02:33:04;4.60;91.30
46440;DHT22;32138;50.966;6.968;2022-12-11T02:36:38;4.70;91.30
46440;DHT22;32138;50.966;6.968;2022-12-11T02:37:42;4.80;91.40
46440;DHT22;32138;50.966;6.968;2022-12-11T02:38:46;4.90;91.10
46440;DHT22;32138;50.966;6.968;2022-12-11T02:39:53;4.90;91.10
46440;DHT22;32138;50.966;6.968;2022-12-11T02:40:55;4.90;90.90
46440;DHT22;32138;50.966;6.968;2022-12-11T02:41:57;5.00;90.90
46440;DHT22;32138;50.966;6.968;2022-12-11T02:43:01;5.00;91.20
46440;DHT22;32138;50.966;6.968;2022-12-11T02:44:05;5.00;90.90
46440;DHT22;32138;50.966;6.968;2022-12-11T02:45:07;5.00;90.80
46440;DHT22;32138;50.966;6.968;2022-12-11T02:46:08;5.00;90.70
46440;DHT22;32138;50.966;6.968;2022-12-11T02:47:11;5.00;90.80
46440;DHT22;32138;50.966;6.968;2022-12-11T02:48:14;4.90;90.90
46440;DHT22;32138;50.966;6.968;2022-12-11T02:49:17;4.70;90.80
46440;DHT22;32138;50.966;6.968;2022-12-11T02:50:20;4.70;91.10
46440;DHT22;32138;50.966;6.968;2022-12-11T02:51:30;4.60;91.20
46440;DHT22;32138;50.966;6.968;2022-12-11T02:52:36;4.50;91.30
46440;DHT22;32138;50.966;6.968;2022-12-11T02:53:41;4.60;91.50
46440;DHT22;32138;50.966;6.968;2022-12-11T02:54:43;4.50;91.50
46440;DHT22;32138;50.966;6.968;2022-12-11T02:55:44;4.40;91.60
46440;DHT22;32138;50.966;6.968;2022-12-11T02:56:51;4.50;91.60
46440;DHT22;32138;50.966;6.968;2022-12-11T02:58:05;4.50;91.80
46440;DHT22;32138;50.966;6.968;2022-12-11T02:59:14;4.60;92.00
46440;DHT22;32138;50.966;6.968;2022-12-11T03:00:17;4.80;91.50
46440;DHT22;32138;50.966;6.968;2022-12-11T03:01:18;4.80;91.40
46440;DHT22;32138;50.966;6.968;2022-12-11T03:02:19;4.80;91.20
46440;DHT22;32138;50.966;6.968;2022-12-11T03:03:20;4.70;91.20
46440;DHT22;32138;50.966;6.968;2022-12-11T03:04:21;4.70;91.40
46440;DHT22;32138;50.966;6.968;2022-12-11T03:05:24;4.80;91.50
46440;DHT22;32138;50.966;6.968;2022-12-11T03:06:38;4.60;91.00
46440;DHT22;32138;50.966;6.968;2022-12-11T03:07:43;4.50;91.50
46440;DHT22;32138;50.966;6.968;2022-12-11T03:08:44;4.50;91.50
46440;DHT22;32138;50.966;6.968;2022-12-11T03:09:46;4.60;91.60
46440;DHT22;32138;50.966;6.968;2022-12-11T03:10:47;4.70;91.50
46440;DHT22;32138;50.966;6.968;2022-12-11T03:11:48;4.80;91.50
46440;DHT22;32138;50.966;6.968;2022-12-11T03:12:51;4.90;91.40
46440;DHT22;32138;50.966;6.968;2022-12-11T03:13:53;4.90;91.30
46440;DHT22;32138;50.966;6.968;2022-12-11T03:14:55;5.00;91.20
46440;DHT22;32138;50.966;6.968;2022-12-11T03:16:13;5.00;91.20
46440;DHT22;32138;50.966;6.968;2022-12-11T03:17:27;5.00;91.30
46440;DHT22;32138;50.966;6.968;2022-12-11T03:18:39;5.00;91.50
46440;DHT22;32138;50.966;6.968;2022-12-11T03:21:35;5.00;91.00
46440;DHT22;32138;50.966;6.968;2022-12-11T03:22:46;4.40;91.20
46440;DHT22;32138;50.966;6.968;2022-12-11T03:23:56;4.30;92.30
46440;DHT22;32138;50.966;6.968;2022-12-11T03:26:10;4.60;91.90
46440;DHT22;32138;50.966;6.968;2022-12-11T03:28:54;4.60;91.00
46440;DHT22;32138;50.966;6.968;2022-12-11T03:30:03;4.30;91.90
46440;DHT22;32138;50.966;6.968;2022-12-11T03:31:12;4.30;92.20
46440;DHT22;32138;50.966;6.968;2022-12-11T03:32:19;4.30;91.80
46440;DHT22;32138;50.966;6.968;2022-12-11T03:33:24;4.20;92.30
46440;DHT22;32138;50.966;6.968;2022-12-11T03:34:30;4.20;92.20
46440;DHT22;32138;50.966;6.968;2022-12-11T03:37:06;4.10;92.10
46440;DHT22;32138;50.966;6.968;2022-12-11T03:38:16;4.10;92.50
46440;DHT22;32138;50.966;6.968;2022-12-11T03:39:28;4.10;92.40
46440;DHT22;32138;50.966;6.968;2022-12-11T03:40:33;4.20;92.40
46440;DHT22;32138;50.966;6.968;2022-12-11T03:41:36;4.30;92.20
46440;DHT22;32138;50.966;6.968;2022-12-11T03:42:39;4.50;92.20
46440;DHT22;32138;50.966;6.968;2022-12-11T03:43:41;4.50;91.90
46440;DHT22;32138;50.966;6.968;2022-12-11T03:44:47;4.50;91.80
46440;DHT22;32138;50.966;6.968;2022-12-11T03:45:49;4.60;91.80
46440;DHT22;32138;50.966;6.968;2022-12-11T03:46:52;4.60;91.70
46440;DHT22;32138;50.966;6.968;2022-12-11T03:47:57;4.70;91.60
46440;DHT22;32138;50.966;6.968;2022-12-11T03:49:03;4.70;91.40
46440;DHT22;32138;50.966;6.968;2022-12-11T03:50:09;4.60;91.40
46440;DHT22;32138;50.966;6.968;2022-12-11T03:51:10;4.60;91.70
46440;DHT22;32138;50.966;6.968;2022-12-11T03:52:13;4.60;91.60
46440;DHT22;32138;50.966;6.968;2022-12-11T03:53:15;4.40;91.40
46440;DHT22;32138;50.966;6.968;2022-12-11T03:54:18;4.30;91.90
46440;DHT22;32138;50.966;6.968;2022-12-11T03:55:21;4.30;91.90
46440;DHT22;32138;50.966;6.968;2022-12-11T03:56:23;4.40;91.80
46440;DHT22;32138;50.966;6.968;2022-12-11T03:57:30;4.30;91.70
46440;DHT22;32138;50.966;6.968;2022-12-11T03:58:34;4.30;92.10
46440;DHT22;32138;50.966;6.968;2022-12-11T03:59:34;4.30;91.90
46440;DHT22;32138;50.966;6.968;2022-12-11T04:00:35;4.20;91.90
46440;DHT22;32138;50.966;6.968;2022-12-11T04:01:36;4.30;92.00
46440;DHT22;32138;50.966;6.968;2022-12-11T04:02:38;4.50;91.90
46440;DHT22;32138;50.966;6.968;2022-12-11T04:03:39;4.40;91.70
46440;DHT22;32138;50.966;6.968;2022-12-11T04:04:41;4.40;91.80
46440;DHT22;32138;50.966;6.968;2022-12-11T04:05:45;4.40;91.80
46440;DHT22;32138;50.966;6.968;2022-12-11T04:06:49;4.40;91.80
46440;DHT22;32138;50.966;6.968;2022-12-11T04:07:49;4.50;91.90
46440;DHT22;32138;50.966;6.968;2022-12-11T04:08:50;4.50;91.60
46440;DHT22;32138;50.966;6.968;2022-12-11T04:09:51;4.40;91.70
46440;DHT22;32138;50.966;6.968;2022-12-11T04:10:52;4.40;91.70
46440;DHT22;32138;50.966;6.968;2022-12-11T04:12:12;4.50;91.80
46440;DHT22;32138;50.966;6.968;2022-12-11T04:13:13;4.60;91.60
46440;DHT22;32138;50.966;6.968;2022-12-11T04:14:14;4.70;91.50
46440;DHT22;32138;50.966;6.968;2022-12-11T04:15:34;4.80;91.40
46440;DHT22;32138;50.966;6.968;2022-12-11T04:16:35;4.80;91.30
46440;DHT22;32138;50.966;6.968;2022-12-11T04:17:36;4.90;91.20
46440;DHT22;32138;50.966;6.968;2022-12-11T04:18:55;4.80;91.00
46440;DHT22;32138;50.966;6.968;2022-12-11T04:20:14;4.70;91.10
46440;DHT22;32138;50.966;6.968;2022-12-11T04:21:34;4.80;91.10
46440;DHT22;32138;50.966;6.968;2022-12-11T04:22:53;4.90;91.00
46440;DHT22;32138;50.966;6.968;2022-12-11T04:24:12;4.80;90.90
46440;DHT22;32138;50.966;6.968;2022-12-11T04:25:16;4.70;91.20
46440;DHT22;32138;50.966;6.968;2022-12-11T04:26:19;4.80;91.00
46440;DHT22;32138;50.966;6.968;2022-12-11T04:27:20;4.80;91.00
46440;DHT22;32138;50.966;6.968;2022-12-11T04:28:39;4.80;91.00
46440;DHT22;32138;50.966;6.968;2022-12-11T04:29:41;4.80;91.00
46440;DHT22;32138;50.966;6.968;2022-12-11T04:30:47;4.70;91.00
46440;DHT22;32138;50.966;6.968;2022-12-11T04:31:49;4.70;90.90
46440;DHT22;32138;50.966;6.968;2022-12-11T04:32:53;4.70;90.80
46440;DHT22;32138;50.966;6.968;2022-12-11T04:33:54;4.70;90.80
46440;DHT22;32138;50.966;6.968;2022-12-11T04:34:55;4.80;91.00
46440;DHT22;32138;50.966;6.968;2022-12-11T04:35:59;4.80;90.80
46440;DHT22;32138;50.966;6.968;2022-12-11T04:37:00;4.90;90.50
46440;DHT22;32138;50.966;6.968;2022-12-11T04:38:01;4.90;90.70
46440;DHT22;32138;50.966;6.968;2022-12-11T04:39:04;4.90;90.50
46440;DHT22;32138;50.966;6.968;2022-12-11T04:40:08;4.90;90.60
46440;DHT22;32138;50.966;6.968;2022-12-11T04:41:12;4.90;90.50
46440;DHT22;32138;50.966;6.968;2022-12-11T04:42:14;5.00;90.50
46440;DHT22;32138;50.966;6.968;2022-12-11T04:43:15;5.00;90.40
46440;DHT22;32138;50.966;6.968;2022-12-11T04:44:16;5.00;90.40
46440;DHT22;32138;50.966;6.968;2022-12-11T04:45:16;5.00;90.30
46440;DHT22;32138;50.966;6.968;2022-12-11T04:46:20;4.90;90.40
46440;DHT22;32138;50.966;6.968;2022-12-11T04:47:22;4.80;90.40
46440;DHT22;32138;50.966;6.968;2022-12-11T04:48:22;4.80;90.30
46440;DHT22;32138;50.966;6.968;2022-12-11T04:49:23;4.90;90.20
46440;DHT22;32138;50.966;6.968;2022-12-11T04:50:24;4.80;90.30
46440;DHT22;32138;50.966;6.968;2022-12-11T04:51:26;4.90;90.50
46440;DHT22;32138;50.966;6.968;2022-12-11T04:52:27;5.00;90.40
46440;DHT22;32138;50.966;6.968;2022-12-11T04:53:28;5.10;90.30
46440;DHT22;32138;50.966;6.968;2022-12-11T04:54:31;5.10;90.20
46440;DHT22;32138;50.966;6.968;2022-12-11T04:55:32;5.10;90.00
46440;DHT22;32138;50.966;6.968;2022-12-11T04:56:32;5.10;90.00
46440;DHT22;32138;50.966;6.968;2022-12-11T04:57:33;5.10;90.10
46440;DHT22;32138;50.966;6.968;2022-12-11T04:58:34;5.00;90.10
46440;DHT22;32138;50.966;6.968;2022-12-11T04:59:35;4.90;90.10
46440;DHT22;32138;50.966;6.968;2022-12-11T05:00:36;4.90;90.10
46440;DHT22;32138;50.966;6.968;2022-12-11T05:01:37;4.80;90.10
46440;DHT22;32138;50.966;6.968;2022-12-11T05:02:39;4.80;90.30
46440;DHT22;32138;50.966;6.968;2022-12-11T05:03:41;4.80;90.50
46440;DHT22;32138;50.966;6.968;2022-12-11T05:04:42;4.80;90.10
46440;DHT22;32138;50.966;6.968;2022-12-11T05:05:51;4.80;90.40
46440;DHT22;32138;50.966;6.968;2022-12-11T05:06:52;4.90;90.10
46440;DHT22;32138;50.966;6.968;2022-12-11T05:07:53;4.80;90.10
46440;DHT22;32138;50.966;6.968;2022-12-11T05:08:54;4.80;90.20
46440;DHT22;32138;50.966;6.968;2022-12-11T05:09:54;4.80;90.20
46440;DHT22;32138;50.966;6.968;2022-12-11T05:10:57;4.80;90.20
46440;DHT22;32138;50.966;6.968;2022-12-11T05:11:58;4.80;90.00
46440;DHT22;32138;50.966;6.968;2022-12-11T05:12:59;4.80;90.30
46440;DHT22;32138;50.966;6.968;2022-12-11T05:14:00;4.70;90.30
46440;DHT22;32138;50.966;6.968;2022-12-11T05:15:00;4.80;90.50
46440;DHT22;32138;50.966;6.968;2022-12-11T05:16:06;4.80;90.50
46440;DHT22;32138;50.966;6.968;2022-12-11T05:17:08;4.90;90.30
46440;DHT22;32138;50.966;6.968;2022-12-11T05:18:08;5.00;90.30
46440;DHT22;32138;50.966;6.968;2022-12-11T05:19:09;5.10;90.20
46440;DHT22;32138;50.966;6.968;2022-12-11T05:20:10;5.10;90.10
46440;DHT22;32138;50.966;6.968;2022-12-11T05:21:12;5.10;90.10
46440;DHT22;32138;50.966;6.968;2022-12-11T05:22:14;5.10;89.50
46440;DHT22;32138;50.966;6.968;2022-12-11T05:23:16;5.00;89.60
46440;DHT22;32138;50.966;6.968;2022-12-11T05:24:17;4.90;90.00
46440;DHT22;32138;50.966;6.968;2022-12-11T05:25:18;4.90;90.20
46440;DHT22;32138;50.966;6.968;2022-12-11T05:26:19;4.80;90.30
46440;DHT22;32138;50.966;6.968;2022-12-11T05:27:20;4.90;90.30
46440;DHT22;32138;50.966;6.968;2022-12-11T05:28:22;4.90;90.00
46440;DHT22;32138;50.966;6.968;2022-12-11T05:29:24;5.00;90.00
46440;DHT22;32138;50.966;6.968;2022-12-11T05:30:24;5.00;90.00
46440;DHT22;32138;50.966;6.968;2022-12-11T05:31:26;5.00;90.00
46440;DHT22;32138;50.966;6.968;2022-12-11T05:32:27;4.90;89.90
46440;DHT22;32138;50.966;6.968;2022-12-11T05:33:29;4.90;90.20
46440;DHT22;32138;50.966;6.968;2022-12-11T05:34:30;4.90;90.10
46440;DHT22;32138;50.966;6.968;2022-12-11T05:35:30;4.90;89.80
46440;DHT22;32138;50.966;6.968;2022-12-11T05:36:32;4.90;90.20
46440;DHT22;32138;50.966;6.968;2022-12-11T05:37:33;4.90;90.30
46440;DHT22;32138;50.966;6.968;2022-12-11T05:38:34;4.90;90.10
46440;DHT22;32138;50.966;6.968;2022-12-11T05:39:36;5.00;90.20
46440;DHT22;32138;50.966;6.968;2022-12-11T05:40:37;5.00;90.00
46440;DHT22;32138;50.966;6.968;2022-12-11T05:41:38;5.00;90.00
46440;DHT22;32138;50.966;6.968;2022-12-11T05:42:39;5.00;89.70
46440;DHT22;32138;50.966;6.968;2022-12-11T05:43:40;5.00;90.20
46440;DHT22;32138;50.966;6.968;2022-12-11T05:44:41;5.00;90.10
46440;DHT22;32138;50.966;6.968;2022-12-11T05:45:42;5.00;90.00
46440;DHT22;32138;50.966;6.968;2022-12-11T05:46:43;5.00;90.20
46440;DHT22;32138;50.966;6.968;2022-12-11T05:47:44;5.00;90.10
46440;DHT22;32138;50.966;6.968;2022-12-11T05:48:46;5.00;90.00
46440;DHT22;32138;50.966;6.968;2022-12-11T05:49:48;5.00;90.00
46440;DHT22;32138;50.966;6.968;2022-12-11T05:50:58;4.90;90.00
46440;DHT22;32138;50.966;6.968;2022-12-11T05:51:59;4.80;90.10
46440;DHT22;32138;50.966;6.968;2022-12-11T05:53:00;4.80;90.30
46440;DHT22;32138;50.966;6.968;2022-12-11T05:54:02;4.70;90.50
46440;DHT22;32138;50.966;6.968;2022-12-11T05:55:03;4.80;90.50
46440;DHT22;32138;50.966;6.968;2022-12-11T05:56:14;4.80;90.40
46440;DHT22;32138;50.966;6.968;2022-12-11T05:57:16;4.90;90.20
46440;DHT22;32138;50.966;6.968;2022-12-11T05:58:17;4.90;90.10
46440;DHT22;32138;50.966;6.968;2022-12-11T05:59:19;4.90;90.10
46440;DHT22;32138;50.966;6.968;2022-12-11T06:00:19;4.90;90.00
46440;DHT22;32138;50.966;6.968;2022-12-11T06:01:36;4.90;90.00
46440;DHT22;32138;50.966;6.968;2022-12-11T06:02:37;5.00;90.10
46440;DHT22;32138;50.966;6.968;2022-12-11T06:03:38;4.80;90.00
46440;DHT22;32138;50.966;6.968;2022-12-11T06:04:39;4.80;90.00
46440;DHT22;32138;50.966;6.968;2022-12-11T06:05:41;4.90;90.00
46440;DHT22;32138;50.966;6.968;2022-12-11T06:06:42;5.00;89.60
46440;DHT22;32138;50.966;6.968;2022-12-11T06:07:45;5.00;90.00
46440;DHT22;32138;50.966;6.968;2022-12-11T06:08:49;5.00;89.30
46440;DHT22;32138;50.966;6.968;2022-12-11T06:09:50;4.90;89.30
46440;DHT22;32138;50.966;6.968;2022-12-11T06:10:51;4.80;89.70
46440;DHT22;32138;50.966;6.968;2022-12-11T06:11:52;4.70;90.00
46440;DHT22;32138;50.966;6.968;2022-12-11T06:12:53;4.60;90.10
46440;DHT22;32138;50.966;6.968;2022-12-11T06:13:54;4.60;90.20
46440;DHT22;32138;50.966;6.968;2022-12-11T06:14:55;4.60;90.40
46440;DHT22;32138;50.966;6.968;2022-12-11T06:16:03;4.70;90.20
46440;DHT22;32138;50.966;6.968;2022-12-11T06:17:05;4.70;90.20
46440;DHT22;32138;50.966;6.968;2022-12-11T06:18:06;4.70;90.00
46440;DHT22;32138;50.966;6.968;2022-12-11T06:19:13;4.80;90.10
46440;DHT22;32138;50.966;6.968;2022-12-11T06:20:14;4.90;90.00
46440;DHT22;32138;50.966;6.968;2022-12-11T06:21:16;4.90;89.80
46440;DHT22;32138;50.966;6.968;2022-12-11T06:22:18;4.80;89.50
46440;DHT22;32138;50.966;6.968;2022-12-11T06:23:19;4.70;90.10
46440;DHT22;32138;50.966;6.968;2022-12-11T06:24:20;4.80;90.20
46440;DHT22;32138;50.966;6.968;2022-12-11T06:25:21;4.80;90.00
46440;DHT22;32138;50.966;6.968;2022-12-11T06:26:22;4.90;89.70
46440;DHT22;32138;50.966;6.968;2022-12-11T06:27:23;4.80;89.90
46440;DHT22;32138;50.966;6.968;2022-12-11T06:28:23;4.80;89.90
46440;DHT22;32138;50.966;6.968;2022-12-11T06:29:24;4.80;90.00
46440;DHT22;32138;50.966;6.968;2022-12-11T06:30:25;4.80;90.00
46440;DHT22;32138;50.966;6.968;2022-12-11T06:31:26;4.60;90.10
46440;DHT22;32138;50.966;6.968;2022-12-11T06:32:27;4.50;90.20
46440;DHT22;32138;50.966;6.968;2022-12-11T06:33:28;4.50;90.30
46440;DHT22;32138;50.966;6.968;2022-12-11T06:34:29;4.50;90.30
46440;DHT22;32138;50.966;6.968;2022-12-11T06:35:30;4.50;90.30
46440;DHT22;32138;50.966;6.968;2022-12-11T06:36:31;4.50;90.40
46440;DHT22;32138;50.966;6.968;2022-12-11T06:37:31;4.50;90.60
46440;DHT22;32138;50.966;6.968;2022-12-11T06:38:34;4.50;90.60
46440;DHT22;32138;50.966;6.968;2022-12-11T06:39:35;4.50;90.70
46440;DHT22;32138;50.966;6.968;2022-12-11T06:40:36;4.60;90.60
46440;DHT22;32138;50.966;6.968;2022-12-11T06:41:37;4.50;90.60
46440;DHT22;32138;50.966;6.968;2022-12-11T06:42:38;4.50;90.60
46440;DHT22;32138;50.966;6.968;2022-12-11T06:43:39;4.50;90.60
46440;DHT22;32138;50.966;6.968;2022-12-11T06:44:41;4.50;90.30
46440;DHT22;32138;50.966;6.968;2022-12-11T06:45:41;4.50;90.60
46440;DHT22;32138;50.966;6.968;2022-12-11T06:46:42;4.50;90.60
46440;DHT22;32138;50.966;6.968;2022-12-11T06:47:43;4.50;90.60
46440;DHT22;32138;50.966;6.968;2022-12-11T06:48:44;4.60;90.40
46440;DHT22;32138;50.966;6.968;2022-12-11T06:49:45;4.50;90.40
46440;DHT22;32138;50.966;6.968;2022-12-11T06:50:46;4.50;90.60
46440;DHT22;32138;50.966;6.968;2022-12-11T06:51:47;4.50;90.50
46440;DHT22;32138;50.966;6.968;2022-12-11T06:52:47;4.40;90.60
46440;DHT22;32138;50.966;6.968;2022-12-11T06:53:52;4.40;90.90
46440;DHT22;32138;50.966;6.968;2022-12-11T06:54:54;4.40;90.90
46440;DHT22;32138;50.966;6.968;2022-12-11T06:55:55;4.50;90.70
46440;DHT22;32138;50.966;6.968;2022-12-11T06:57:01;4.40;90.70
46440;DHT22;32138;50.966;6.968;2022-12-11T06:58:02;4.50;90.60
46440;DHT22;32138;50.966;6.968;2022-12-11T06:59:03;4.50;90.40
46440;DHT22;32138;50.966;6.968;2022-12-11T07:00:04;4.50;90.40
46440;DHT22;32138;50.966;6.968;2022-12-11T07:01:17;4.40;90.50